sensor_id;sensor_type;location;lat;lon;timestamp;pressure;altitude;pressure_sealevel;temperature;humidity
76847;BME280;65813;49.546;8.644;2024-01-10T04:46:50;101670.31;;;-2.89;51.45
76847;BME280;65813;49.546;8.644;2024-01-10T04:50:51;101680.75;;;-2.90;51.83
76847;BME280;65813;49.546;8.644;2024-01-10T04:54:51;101680.72;;;-2.89;52.14
76847;BME280;65813;49.546;8.644;2024-01-10T04:58:52;101679.84;;;-2.89;53.20
76847;BME280;65813;49.546;8.644;2024-01-10T05:02:53;101686.84;;;-2.90;51.11
76847;BME280;65813;49.546;8.644;2024-01-10T05:06:53;101680.72;;;-2.95;53.05
76847;BME280;65813;49.546;8.644;2024-01-10T05:10:53;101685.91;;;-2.96;52.48
76847;BME280;65813;49.546;8.644;2024-01-10T05:14:54;101681.59;;;-2.94;53.54
76847;BME280;65813;49.546;8.644;2024-01-10T05:18:54;101685.91;;;-3.02;54.22
76847;BME280;65813;49.546;8.644;2024-01-10T05:22:54;101689.41;;;-3.03;55.05
76847;BME280;65813;49.546;8.644;2024-01-10T05:26:58;101682.44;;;-3.06;55.00
76847;BME280;65813;49.546;8.644;2024-01-10T05:30:58;101684.16;;;-3.11;55.34
76847;BME280;65813;49.546;8.644;2024-01-10T05:34:59;101682.41;;;-3.15;55.65
76847;BME280;65813;49.546;8.644;2024-01-10T05:38:59;101681.50;;;-3.23;57.03
76847;BME280;65813;49.546;8.644;2024-01-10T05:42:59;101685.88;;;-3.18;57.59
76847;BME280;65813;49.546;8.644;2024-01-10T05:47:00;101686.75;;;-3.13;56.74
76847;BME280;65813;49.546;8.644;2024-01-10T05:51:01;101685.94;;;-3.07;57.48
76847;BME280;65813;49.546;8.644;2024-01-10T05:55:01;101691.16;;;-2.89;55.27
76847;BME280;65813;49.546;8.644;2024-01-10T05:59:02;101679.84;;;-2.98;53.60
76847;BME280;65813;49.546;8.644;2024-01-10T06:03:03;101673.75;;;-3.05;55.09
76847;BME280;65813;49.546;8.644;2024-01-10T06:07:04;101685.88;;;-3.13;56.22
76847;BME280;65813;49.546;8.644;2024-01-10T06:11:04;101693.69;;;-3.18;57.32
76847;BME280;65813;49.546;8.644;2024-01-10T06:15:09;101697.09;;;-3.31;55.80
76847;BME280;65813;49.546;8.644;2024-01-10T06:19:10;101693.63;;;-3.33;55.97
76847;BME280;65813;49.546;8.644;2024-01-10T06:23:10;101691.91;;;-3.35;56.72
76847;BME280;65813;49.546;8.644;2024-01-10T06:27:10;101696.25;;;-3.31;56.77
76847;BME280;65813;49.546;8.644;2024-01-10T06:31:11;101698.88;;;-3.24;58.75
76847;BME280;65813;49.546;8.644;2024-01-10T06:35:11;101686.66;;;-3.37;57.15
76847;BME280;65813;49.546;8.644;2024-01-10T06:39:11;101691.06;;;-3.22;57.22
76847;BME280;65813;49.546;8.644;2024-01-10T06:43:15;101694.56;;;-3.16;58.77
76847;BME280;65813;49.546;8.644;2024-01-10T06:47:16;101690.22;;;-3.21;59.91
76847;BME280;65813;49.546;8.644;2024-01-10T06:51:16;101693.72;;;-3.12;58.43
76847;BME280;65813;49.546;8.644;2024-01-10T06:55:17;101695.50;;;-2.94;56.87
76847;BME280;65813;49.546;8.644;2024-01-10T06:59:19;101689.41;;;-2.99;57.79
76847;BME280;65813;49.546;8.644;2024-01-10T07:03:20;101702.44;;;-3.00;57.99
76847;BME280;65813;49.546;8.644;2024-01-10T07:07:20;101707.66;;;-2.97;58.47
76847;BME280;65813;49.546;8.644;2024-01-10T07:11:20;101704.16;;;-2.99;57.89
76847;BME280;65813;49.546;8.644;2024-01-10T07:15:22;101712.84;;;-2.99;60.24
76847;BME280;65813;49.546;8.644;2024-01-10T07:19:22;101715.47;;;-3.03;57.23
76847;BME280;65813;49.546;8.644;2024-01-10T07:23:24;101716.41;;;-2.71;55.29
76847;BME280;65813;49.546;8.644;2024-01-10T07:27:25;101732.03;;;-2.80;58.24
76847;BME280;65813;49.546;8.644;2024-01-10T07:31:25;101731.19;;;-2.70;57.33
76847;BME280;65813;49.546;8.644;2024-01-10T07:35:26;101735.53;;;-2.80;57.30
76847;BME280;65813;49.546;8.644;2024-01-10T07:39:29;101738.09;;;-2.84;57.27
76847;BME280;65813;49.546;8.644;2024-01-10T07:43:30;101749.41;;;-2.87;57.01
76847;BME280;65813;49.546;8.644;2024-01-10T07:47:31;101754.66;;;-2.76;57.50
76847;BME280;65813;49.546;8.644;2024-01-10T07:51:31;101752.94;;;-2.62;55.35
76847;BME280;65813;49.546;8.644;2024-01-10T07:55:32;101756.41;;;-2.66;54.53
76847;BME280;65813;49.546;8.644;2024-01-10T07:59:33;101757.28;;;-2.58;56.95
76847;BME280;65813;49.546;8.644;2024-01-10T08:03:33;101759.94;;;-2.37;58.34
76847;BME280;65813;49.546;8.644;2024-01-10T08:07:37;101764.28;;;-2.33;56.48
76847;BME280;65813;49.546;8.644;2024-01-10T08:11:38;101765.16;;;-2.37;54.15
76847;BME280;65813;49.546;8.644;2024-01-10T08:15:38;101754.72;;;-2.29;55.08
76847;BME280;65813;49.546;8.644;2024-01-10T08:19:39;101756.47;;;-1.99;52.94
76847;BME280;65813;49.546;8.644;2024-01-10T08:23:39;101758.19;;;-2.27;55.25
76847;BME280;65813;49.546;8.644;2024-01-10T08:27:40;101759.09;;;-2.21;56.36
76847;BME280;65813;49.546;8.644;2024-01-10T08:31:42;101756.47;;;-2.15;55.41
76847;BME280;65813;49.546;8.644;2024-01-10T08:35:42;101760.81;;;-2.23;54.92
76847;BME280;65813;49.546;8.644;2024-01-10T08:39:43;101765.16;;;-2.07;53.73
76847;BME280;65813;49.546;8.644;2024-01-10T08:43:44;101757.34;;;-2.26;54.72
76847;BME280;65813;49.546;8.644;2024-01-10T08:47:44;101765.19;;;-2.19;54.30
76847;BME280;65813;49.546;8.644;2024-01-10T08:51:45;101761.69;;;-2.24;54.83
76847;BME280;65813;49.546;8.644;2024-01-10T08:55:46;101761.69;;;-1.99;53.36
76847;BME280;65813;49.546;8.644;2024-01-10T08:59:47;101764.31;;;-1.81;54.55
76847;BME280;65813;49.546;8.644;2024-01-10T09:03:47;101770.38;;;-1.88;55.00
76847;BME280;65813;49.546;8.644;2024-01-10T09:07:49;101771.25;;;-1.71;54.73
76847;BME280;65813;49.546;8.644;2024-01-10T09:11:49;101773.88;;;-1.67;55.87
76847;BME280;65813;49.546;8.644;2024-01-10T09:15:50;101777.34;;;-1.63;52.86
76847;BME280;65813;49.546;8.644;2024-01-10T09:19:50;101780.81;;;-1.61;54.24
76847;BME280;65813;49.546;8.644;2024-01-10T09:23:50;101784.28;;;-1.53;53.86
76847;BME280;65813;49.546;8.644;2024-01-10T09:27:51;101775.56;;;-1.35;55.31
76847;BME280;65813;49.546;8.644;2024-01-10T09:31:51;101779.84;;;-1.16;53.24
76847;BME280;65813;49.546;8.644;2024-01-10T09:35:52;101769.44;;;-1.36;51.75
76847;BME280;65813;49.546;8.644;2024-01-10T09:39:52;101765.06;;;-1.19;53.51
76847;BME280;65813;49.546;8.644;2024-01-10T09:43:53;101778.06;;;-1.02;53.21
76847;BME280;65813;49.546;8.644;2024-01-10T09:47:57;101773.69;;;-1.02;52.17
76847;BME280;65813;49.546;8.644;2024-01-10T09:51:58;101771.09;;;-1.02;52.08
76847;BME280;65813;49.546;8.644;2024-01-10T09:56:04;101779.72;;;-0.84;53.12
76847;BME280;65813;49.546;8.644;2024-01-10T10:00:04;101774.63;;;-1.15;51.22
76847;BME280;65813;49.546;8.644;2024-01-10T10:04:07;101771.16;;;-1.18;51.36
76847;BME280;65813;49.546;8.644;2024-01-10T10:08:13;101764.97;;;-0.97;53.33
76847;BME280;65813;49.546;8.644;2024-01-10T10:12:15;101772.88;;;-1.11;51.48
76847;BME280;65813;49.546;8.644;2024-01-10T10:16:22;101771.84;;;-0.77;51.12
76847;BME280;65813;49.546;8.644;2024-01-10T10:20:26;101765.91;;;-1.18;51.72
76847;BME280;65813;49.546;8.644;2024-01-10T10:24:26;101750.88;;;-0.72;52.25
76847;BME280;65813;49.546;8.644;2024-01-10T10:28:30;101759.59;;;-0.67;52.78
76847;BME280;65813;49.546;8.644;2024-01-10T10:32:31;101752.56;;;-0.56;51.13
76847;BME280;65813;49.546;8.644;2024-01-10T10:36:32;101750.50;;;-0.12;51.31
76847;BME280;65813;49.546;8.644;2024-01-10T10:40:32;101753.09;;;-0.09;50.80
76847;BME280;65813;49.546;8.644;2024-01-10T10:44:35;101756.31;;;0.22;49.67
76847;BME280;65813;49.546;8.644;2024-01-10T10:48:37;101752.19;;;-0.05;48.93
76847;BME280;65813;49.546;8.644;2024-01-10T10:52:38;101754.13;;;-0.31;50.05
76847;BME280;65813;49.546;8.644;2024-01-10T10:56:43;101751.13;;;0.19;50.12
76847;BME280;65813;49.546;8.644;2024-01-10T11:00:44;101746.75;;;0.20;49.01
76847;BME280;65813;49.546;8.644;2024-01-10T11:04:47;101748.69;;;-0.05;49.13
76847;BME280;65813;49.546;8.644;2024-01-10T11:09:08;101754.66;;;0.12;49.61
76847;BME280;65813;49.546;8.644;2024-01-10T11:13:26;101741.72;;;-0.05;49.84
76847;BME280;65813;49.546;8.644;2024-01-10T11:26:28;101725.75;;;0.23;49.19
76847;BME280;65813;49.546;8.644;2024-01-10T11:30:35;101727.75;;;-0.07;49.78
76847;BME280;65813;49.546;8.644;2024-01-10T11:34:37;101714.63;;;0.82;49.82
76847;BME280;65813;49.546;8.644;2024-01-10T11:42:58;101717.38;;;1.37;49.33
76847;BME280;65813;49.546;8.644;2024-01-10T11:46:58;101714.59;;;0.83;48.49
76847;BME280;65813;49.546;8.644;2024-01-10T11:50:59;101715.47;;;0.85;49.26
76847;BME280;65813;49.546;8.644;2024-01-10T11:55:03;101718.28;;;0.69;48.86
76847;BME280;65813;49.546;8.644;2024-01-10T11:59:08;101717.69;;;1.16;49.04
76847;BME280;65813;49.546;8.644;2024-01-10T12:03:11;101712.66;;;0.97;49.09
76847;BME280;65813;49.546;8.644;2024-01-10T12:07:12;101713.22;;;1.22;49.01
76847;BME280;65813;49.546;8.644;2024-01-10T12:11:13;101714.56;;;1.49;49.02
76847;BME280;65813;49.546;8.644;2024-01-10T12:15:13;101714.19;;;1.17;49.10
76847;BME280;65813;49.546;8.644;2024-01-10T12:19:14;101711.59;;;1.14;49.31
76847;BME280;65813;49.546;8.644;2024-01-10T12:23:15;101705.84;;;0.84;49.69
76847;BME280;65813;49.546;8.644;2024-01-10T12:27:19;101705.44;;;1.16;49.75
76847;BME280;65813;49.546;8.644;2024-01-10T12:31:20;101704.06;;;1.50;48.89
76847;BME280;65813;49.546;8.644;2024-01-10T12:35:23;101702.88;;;1.12;49.59
76847;BME280;65813;49.546;8.644;2024-01-10T12:39:23;101701.25;;;1.03;49.15
76847;BME280;65813;49.546;8.644;2024-01-10T12:43:26;101708.03;;;1.18;49.73
76847;BME280;65813;49.546;8.644;2024-01-10T12:47:26;101698.38;;;1.76;49.79
76847;BME280;65813;49.546;8.644;2024-01-10T12:51:28;101694.28;;;1.60;50.91
76847;BME280;65813;49.546;8.644;2024-01-10T12:55:29;101684.00;;;1.45;49.17
76847;BME280;65813;49.546;8.644;2024-01-10T12:59:29;101689.78;;;1.68;48.61
76847;BME280;65813;49.546;8.644;2024-01-10T13:03:30;101683.09;;;1.47;48.95
76847;BME280;65813;49.546;8.644;2024-01-10T13:07:30;101693.34;;;1.64;49.14
76847;BME280;65813;49.546;8.644;2024-01-10T13:11:34;101691.03;;;1.43;49.41
76847;BME280;65813;49.546;8.644;2024-01-10T13:15:35;101696.28;;;1.43;49.09
76847;BME280;65813;49.546;8.644;2024-01-10T13:19:35;101699.13;;;1.31;49.38
76847;BME280;65813;49.546;8.644;2024-01-10T13:23:38;101697.53;;;1.19;49.72
76847;BME280;65813;49.546;8.644;2024-01-10T13:27:38;101690.06;;;1.48;49.36
76847;BME280;65813;49.546;8.644;2024-01-10T13:31:39;101690.16;;;1.42;49.37
76847;BME280;65813;49.546;8.644;2024-01-10T13:35:39;101697.22;;;1.40;49.71
76847;BME280;65813;49.546;8.644;2024-01-10T13:39:42;101693.97;;;1.23;50.35
76847;BME280;65813;49.546;8.644;2024-01-10T13:43:43;101702.63;;;1.28;50.78
76847;BME280;65813;49.546;8.644;2024-01-10T13:47:43;101698.63;;;1.01;50.90
76847;BME280;65813;49.546;8.644;2024-01-10T13:51:43;101702.97;;;1.04;51.32
76847;BME280;65813;49.546;8.644;2024-01-10T13:55:44;101698.69;;;0.98;51.32
76847;BME280;65813;49.546;8.644;2024-01-10T13:59:46;101710.09;;;0.94;51.18
76847;BME280;65813;49.546;8.644;2024-01-10T14:03:47;101709.25;;;0.92;51.24
76847;BME280;65813;49.546;8.644;2024-01-10T14:07:48;101707.47;;;0.94;51.26
76847;BME280;65813;49.546;8.644;2024-01-10T14:11:48;101714.47;;;0.94;51.58
76847;BME280;65813;49.546;8.644;2024-01-10T14:15:49;101712.78;;;0.88;51.14
76847;BME280;65813;49.546;8.644;2024-01-10T14:19:51;101700.69;;;0.77;51.71
76847;BME280;65813;49.546;8.644;2024-01-10T14:23:52;101712.88;;;0.81;51.89
76847;BME280;65813;49.546;8.644;2024-01-10T14:27:52;101716.41;;;0.78;51.41
76847;BME280;65813;49.546;8.644;2024-01-10T14:31:52;101716.41;;;0.78;52.30
76847;BME280;65813;49.546;8.644;2024-01-10T14:35:53;101717.28;;;0.79;52.32
76847;BME280;65813;49.546;8.644;2024-01-10T14:39:53;101714.63;;;0.80;51.91
76847;BME280;65813;49.546;8.644;2024-01-10T14:43:54;101716.47;;;0.75;52.38
76847;BME280;65813;49.546;8.644;2024-01-10T14:47:56;101715.59;;;0.73;52.56
76847;BME280;65813;49.546;8.644;2024-01-10T14:51:57;101721.75;;;0.69;53.11
76847;BME280;65813;49.546;8.644;2024-01-10T14:55:57;101713.03;;;0.67;52.64
76847;BME280;65813;49.546;8.644;2024-01-10T15:00:07;101722.69;;;0.64;53.01
76847;BME280;65813;49.546;8.644;2024-01-10T15:04:07;101728.88;;;0.58;53.65
76847;BME280;65813;49.546;8.644;2024-01-10T15:08:08;101728.94;;;0.55;54.07
76847;BME280;65813;49.546;8.644;2024-01-10T15:12:09;101731.63;;;0.47;53.78
76847;BME280;65813;49.546;8.644;2024-01-10T15:16:11;101746.47;;;0.45;53.84
76847;BME280;65813;49.546;8.644;2024-01-10T15:20:12;101750.88;;;0.42;54.17
76847;BME280;65813;49.546;8.644;2024-01-10T15:24:12;101756.13;;;0.42;54.11
76847;BME280;65813;49.546;8.644;2024-01-10T15:28:12;101751.81;;;0.35;55.07
76847;BME280;65813;49.546;8.644;2024-01-10T15:32:13;101757.88;;;0.43;55.42
76847;BME280;65813;49.546;8.644;2024-01-10T15:36:13;101750.84;;;0.48;55.19
76847;BME280;65813;49.546;8.644;2024-01-10T15:40:14;101755.25;;;0.43;55.78
76847;BME280;65813;49.546;8.644;2024-01-10T15:44:14;101771.97;;;0.28;56.04
76847;BME280;65813;49.546;8.644;2024-01-10T15:48:18;101775.66;;;0.09;56.44
76847;BME280;65813;49.546;8.644;2024-01-10T15:52:19;101770.44;;;0.06;57.32
76847;BME280;65813;49.546;8.644;2024-01-10T15:56:26;101778.31;;;0.03;57.26
76847;BME280;65813;49.546;8.644;2024-01-10T16:00:29;101774.88;;;-0.04;57.28
76847;BME280;65813;49.546;8.644;2024-01-10T16:04:30;101775.72;;;-0.03;57.62
76847;BME280;65813;49.546;8.644;2024-01-10T16:08:30;101787.97;;;-0.05;57.80
76847;BME280;65813;49.546;8.644;2024-01-10T16:12:30;101784.47;;;-0.06;58.23
76847;BME280;65813;49.546;8.644;2024-01-10T16:16:31;101793.22;;;-0.07;58.14
76847;BME280;65813;49.546;8.644;2024-01-10T16:20:32;101787.06;;;-0.03;58.11
76847;BME280;65813;49.546;8.644;2024-01-10T16:24:33;101787.97;;;-0.01;58.45
76847;BME280;65813;49.546;8.644;2024-01-10T16:28:33;101791.44;;;-0.02;58.71
76847;BME280;65813;49.546;8.644;2024-01-10T16:32:34;101796.75;;;-0.12;58.44
76847;BME280;65813;49.546;8.644;2024-01-10T16:36:34;101790.69;;;-0.14;58.88
76847;BME280;65813;49.546;8.644;2024-01-10T16:40:35;101793.28;;;-0.14;58.86
76847;BME280;65813;49.546;8.644;2024-01-10T16:44:35;101787.22;;;-0.21;58.77
76847;BME280;65813;49.546;8.644;2024-01-10T16:48:35;101798.53;;;-0.20;59.44
76847;BME280;65813;49.546;8.644;2024-01-10T16:52:36;101801.13;;;-0.17;60.06
76847;BME280;65813;49.546;8.644;2024-01-10T16:56:38;101794.19;;;-0.20;59.96
76847;BME280;65813;49.546;8.644;2024-01-10T17:00:38;101795.94;;;-0.20;59.87
76847;BME280;65813;49.546;8.644;2024-01-10T17:04:42;101799.50;;;-0.29;60.28
76847;BME280;65813;49.546;8.644;2024-01-10T17:08:48;101801.34;;;-0.51;61.05
76847;BME280;65813;49.546;8.644;2024-01-10T17:12:49;101797.81;;;-0.43;60.72
76847;BME280;65813;49.546;8.644;2024-01-10T17:17:01;101800.41;;;-0.36;60.90
76847;BME280;65813;49.546;8.644;2024-01-10T17:21:01;101802.19;;;-0.44;61.17
76847;BME280;65813;49.546;8.644;2024-01-10T17:25:01;101802.22;;;-0.47;61.19
76847;BME280;65813;49.546;8.644;2024-01-10T17:29:07;101804.81;;;-0.44;61.20
76847;BME280;65813;49.546;8.644;2024-01-10T17:33:08;101817.94;;;-0.53;60.98
76847;BME280;65813;49.546;8.644;2024-01-10T17:37:12;101811.84;;;-0.55;61.75
76847;BME280;65813;49.546;8.644;2024-01-10T17:41:13;101810.25;;;-0.83;62.44
76847;BME280;65813;49.546;8.644;2024-01-10T17:45:14;101820.78;;;-1.14;63.81
76847;BME280;65813;49.546;8.644;2024-01-10T17:49:14;101821.75;;;-1.45;64.64
76847;BME280;65813;49.546;8.644;2024-01-10T17:53:14;101816.50;;;-1.49;65.27
76847;BME280;65813;49.546;8.644;2024-01-10T17:57:15;101814.78;;;-1.63;65.48
76847;BME280;65813;49.546;8.644;2024-01-10T18:01:19;101831.31;;;-1.65;65.62
76847;BME280;65813;49.546;8.644;2024-01-10T18:05:20;101828.69;;;-1.82;66.69
76847;BME280;65813;49.546;8.644;2024-01-10T18:09:20;101826.09;;;-1.71;66.92
76847;BME280;65813;49.546;8.644;2024-01-10T18:13:20;101817.41;;;-1.76;67.07
76847;BME280;65813;49.546;8.644;2024-01-10T18:17:21;101823.47;;;-1.61;66.93
76847;BME280;65813;49.546;8.644;2024-01-10T18:21:22;101826.09;;;-1.56;67.11
76847;BME280;65813;49.546;8.644;2024-01-10T18:25:22;101833.91;;;-1.32;65.97
76847;BME280;65813;49.546;8.644;2024-01-10T18:29:22;101830.38;;;-1.20;65.43
76847;BME280;65813;49.546;8.644;2024-01-10T18:33:23;101828.63;;;-1.00;65.17
76847;BME280;65813;49.546;8.644;2024-01-10T18:37:23;101826.94;;;-1.28;65.30
76847;BME280;65813;49.546;8.644;2024-01-10T18:41:24;101833.06;;;-1.64;66.00
76847;BME280;65813;49.546;8.644;2024-01-10T18:45:25;101840.88;;;-1.44;66.29
76847;BME280;65813;49.546;8.644;2024-01-10T18:49:27;101835.66;;;-1.40;66.07
76847;BME280;65813;49.546;8.644;2024-01-10T18:53:28;101833.06;;;-1.49;65.80
76847;BME280;65813;49.546;8.644;2024-01-10T18:57:28;101833.06;;;-1.63;65.65
76847;BME280;65813;49.546;8.644;2024-01-10T19:01:29;101827.84;;;-1.79;66.03
76847;BME280;65813;49.546;8.644;2024-01-10T19:05:29;101826.09;;;-1.70;66.21
76847;BME280;65813;49.546;8.644;2024-01-10T19:09:29;101828.69;;;-1.61;65.68
76847;BME280;65813;49.546;8.644;2024-01-10T19:13:31;101819.09;;;-1.25;65.82
76847;BME280;65813;49.546;8.644;2024-01-10T19:17:39;101828.66;;;-1.23;65.34
76847;BME280;65813;49.546;8.644;2024-01-10T19:21:39;101828.66;;;-1.38;65.67
76847;BME280;65813;49.546;8.644;2024-01-10T19:25:40;101822.59;;;-1.46;66.32
76847;BME280;65813;49.546;8.644;2024-01-10T19:29:40;101829.56;;;-1.51;66.57
76847;BME280;65813;49.546;8.644;2024-01-10T19:33:41;101833.00;;;-1.31;66.52
76847;BME280;65813;49.546;8.644;2024-01-10T19:37:41;101825.19;;;-1.35;66.59
76847;BME280;65813;49.546;8.644;2024-01-10T19:41:42;101836.50;;;-1.41;66.84
76847;BME280;65813;49.546;8.644;2024-01-10T19:45:42;101828.66;;;-1.29;66.49
76847;BME280;65813;49.546;8.644;2024-01-10T19:49:43;101826.91;;;-1.30;66.34
76847;BME280;65813;49.546;8.644;2024-01-10T19:53:43;101840.88;;;-1.35;66.45
76847;BME280;65813;49.546;8.644;2024-01-10T19:57:48;101845.22;;;-1.40;66.46
76847;BME280;65813;49.546;8.644;2024-01-10T20:01:49;101846.09;;;-1.35;66.42
76847;BME280;65813;49.546;8.644;2024-01-10T20:05:49;101844.34;;;-1.33;66.31
76847;BME280;65813;49.546;8.644;2024-01-10T20:09:50;101852.22;;;-1.35;66.26
76847;BME280;65813;49.546;8.644;2024-01-10T20:13:50;101857.44;;;-1.45;66.75
76847;BME280;65813;49.546;8.644;2024-01-10T20:17:51;101871.38;;;-1.42;66.62
76847;BME280;65813;49.546;8.644;2024-01-10T20:21:51;101871.34;;;-1.54;66.96
76847;BME280;65813;49.546;8.644;2024-01-10T20:25:52;101883.56;;;-1.62;67.23
76847;BME280;65813;49.546;8.644;2024-01-10T20:29:53;101881.78;;;-1.75;67.83
76847;BME280;65813;49.546;8.644;2024-01-10T20:33:53;101873.97;;;-1.68;67.72
76847;BME280;65813;49.546;8.644;2024-01-10T20:37:57;101874.84;;;-1.63;67.62
76847;BME280;65813;49.546;8.644;2024-01-10T20:41:58;101876.56;;;-1.78;68.33
76847;BME280;65813;49.546;8.644;2024-01-10T20:45:58;101886.16;;;-1.85;68.65
76847;BME280;65813;49.546;8.644;2024-01-10T20:49:59;101886.13;;;-1.88;68.84
76847;BME280;65813;49.546;8.644;2024-01-10T20:54:01;101881.75;;;-1.99;69.03
76847;BME280;65813;49.546;8.644;2024-01-10T20:58:01;101873.09;;;-1.97;69.67
76847;BME280;65813;49.546;8.644;2024-01-10T21:02:01;101879.13;;;-2.09;68.83
76847;BME280;65813;49.546;8.644;2024-01-10T21:06:02;101877.31;;;-2.34;69.15
76847;BME280;65813;49.546;8.644;2024-01-10T21:10:04;101878.97;;;-2.60;70.04
76847;BME280;65813;49.546;8.644;2024-01-10T21:14:04;101870.25;;;-2.73;70.85
76847;BME280;65813;49.546;8.644;2024-01-10T21:18:06;101872.00;;;-2.67;70.66
76847;BME280;65813;49.546;8.644;2024-01-10T21:22:08;101870.38;;;-2.30;69.85
76847;BME280;65813;49.546;8.644;2024-01-10T21:26:09;101869.56;;;-2.11;69.36
76847;BME280;65813;49.546;8.644;2024-01-10T21:30:10;101877.44;;;-2.03;69.29
76847;BME280;65813;49.546;8.644;2024-01-10T21:34:12;101867.84;;;-2.11;69.41
76847;BME280;65813;49.546;8.644;2024-01-10T21:38:13;101866.09;;;-2.09;69.35
76847;BME280;65813;49.546;8.644;2024-01-10T21:42:13;101857.41;;;-2.05;69.47
76847;BME280;65813;49.546;8.644;2024-01-10T21:46:13;101848.69;;;-2.11;69.45
76847;BME280;65813;49.546;8.644;2024-01-10T21:50:14;101844.34;;;-2.15;69.48
76847;BME280;65813;49.546;8.644;2024-01-10T21:54:15;101846.94;;;-2.20;69.68
76847;BME280;65813;49.546;8.644;2024-01-10T21:58:15;101848.66;;;-2.25;70.30
76847;BME280;65813;49.546;8.644;2024-01-10T22:02:16;101846.97;;;-2.08;69.36
76847;BME280;65813;49.546;8.644;2024-01-10T22:06:16;101852.91;;;-2.59;70.39
76847;BME280;65813;49.546;8.644;2024-01-10T22:10:16;101843.31;;;-2.64;70.87
76847;BME280;65813;49.546;8.644;2024-01-10T22:14:17;101858.97;;;-2.55;71.04
76847;BME280;65813;49.546;8.644;2024-01-10T22:43:18;101842.06;;;-3.36;73.61
76847;BME280;65813;49.546;8.644;2024-01-10T22:47:18;101832.50;;;-3.37;73.78
76847;BME280;65813;49.546;8.644;2024-01-10T22:51:19;101849.13;;;-3.14;73.04
76847;BME280;65813;49.546;8.644;2024-01-10T22:55:19;101854.28;;;-3.26;74.26
76847;BME280;65813;49.546;8.644;2024-01-10T22:59:19;101868.19;;;-3.25;74.27
76847;BME280;65813;49.546;8.644;2024-01-10T23:03:20;101869.97;;;-3.18;74.27
76847;BME280;65813;49.546;8.644;2024-01-10T23:07:20;101867.31;;;-3.26;74.23
76847;BME280;65813;49.546;8.644;2024-01-10T23:11:21;101856.03;;;-3.26;74.24
76847;BME280;65813;49.546;8.644;2024-01-10T23:15:21;101862.13;;;-3.23;74.12
76847;BME280;65813;49.546;8.644;2024-01-10T23:19:25;101869.97;;;-3.17;73.12
76847;BME280;65813;49.546;8.644;2024-01-10T23:23:27;101865.69;;;-3.12;73.68
76847;BME280;65813;49.546;8.644;2024-01-10T23:27:27;101854.28;;;-3.26;73.44
76847;BME280;65813;49.546;8.644;2024-01-10T23:31:27;101865.66;;;-3.18;73.48
